Time;durP1;ratioP1;P1;durP2;ratioP2;P2;SDS_P1;SDS_P2;PMS_P1;PMS_P2;Temp;Humidity;BMP_temperature;BMP_pressure;BME280_temperature;BME280_humidity;BME280_pressure;Samples;Min_cycle;Max_cycle;Signal;HPM_P1;HPM_P2
2022/08/13 00:00:14;;;;;;;0.40;0.30;;;22.00;46.30;;;;;;5067273;28;20412;-72
2022/08/13 00:02:42;;;;;;;0.40;0.30;;;21.90;46.70;;;;;;5068984;28;20411;-72
2022/08/13 00:05:09;;;;;;;0.40;0.30;;;21.90;46.00;;;;;;5063751;28;20403;-72
2022/08/13 00:07:35;;;;;;;0.40;0.20;;;21.90;45.80;;;;;;5068337;28;20418;-72
2022/08/13 00:10:02;;;;;;;0.40;0.30;;;21.90;46.20;;;;;;5070895;28;20379;-72
2022/08/13 00:15:35;;;;;;;0.40;0.30;;;21.80;46.10;;;;;;5068131;28;20804;-72
2022/08/13 00:18:07;;;;;;;0.40;0.30;;;21.80;46.40;;;;;;5062548;28;20404;-73
2022/08/13 00:20:39;;;;;;;0.40;0.30;;;21.80;47.30;;;;;;5059443;28;20765;-72
2022/08/13 00:23:07;;;;;;;0.40;0.20;;;21.70;46.60;;;;;;5059725;28;20403;-72
2022/08/13 00:25:33;;;;;;;0.50;0.47;;;21.60;47.80;;;;;;5066341;28;20407;-71
2022/08/13 00:28:02;;;;;;;0.40;0.30;;;21.50;47.40;;;;;;5066467;28;20968;-72
2022/08/13 00:30:31;;;;;;;0.40;0.30;;;21.40;48.60;;;;;;5065013;28;20454;-72
2022/08/13 00:32:59;;;;;;;0.40;0.20;;;21.40;48.30;;;;;;5066107;28;20911;-72
2022/08/13 00:35:25;;;;;;;0.40;0.20;;;21.30;48.40;;;;;;5064843;28;20436;-72
2022/08/13 00:37:50;;;;;;;0.40;0.20;;;21.30;49.00;;;;;;5068974;28;20927;-72
2022/08/13 00:40:17;;;;;;;0.40;0.30;;;21.30;48.90;;;;;;5068202;28;20496;-73
2022/08/13 00:42:43;;;;;;;0.40;0.30;;;21.40;48.60;;;;;;5065703;28;20491;-73
2022/08/13 00:45:09;;;;;;;0.40;0.28;;;21.40;48.50;;;;;;5069267;28;21004;-72
2022/08/13 00:50:20;;;;;;;0.40;0.30;;;21.30;49.80;;;;;;5068623;28;20473;-73
2022/08/13 00:52:49;;;;;;;0.40;0.20;;;21.30;49.30;;;;;;5064655;28;20419;-72
2022/08/13 00:55:19;;;;;;;0.40;0.30;;;21.30;49.10;;;;;;5066839;28;20494;-72
2022/08/13 00:57:48;;;;;;;0.40;0.20;;;21.30;49.20;;;;;;5061670;28;20457;-72
2022/08/13 01:00:18;;;;;;;0.40;0.20;;;21.10;49.40;;;;;;5061762;28;20407;-72
2022/08/13 01:02:51;;;;;;;0.40;0.20;;;21.10;50.30;;;;;;5063133;28;20460;-72
2022/08/13 01:05:19;;;;;;;0.40;0.20;;;21.10;49.60;;;;;;5070278;28;20392;-72
2022/08/13 01:07:46;;;;;;;0.40;0.30;;;21.10;50.60;;;;;;5069165;28;20761;-72
2022/08/13 01:10:14;;;;;;;0.40;0.20;;;21.10;49.50;;;;;;5070111;28;20394;-72
2022/08/13 01:12:40;;;;;;;0.40;0.30;;;21.10;50.30;;;;;;5069891;28;20435;-72
2022/08/13 01:15:12;;;;;;;0.40;0.20;;;20.90;50.70;;;;;;5070031;28;20375;-72
2022/08/13 01:17:39;;;;;;;0.40;0.30;;;20.90;51.00;;;;;;5070176;28;20410;-72
2022/08/13 01:20:07;;;;;;;0.40;0.30;;;20.90;51.40;;;;;;5070239;28;20887;-72
2022/08/13 01:22:33;;;;;;;0.50;0.50;;;20.70;51.20;;;;;;5069674;28;20410;-72
2022/08/13 01:25:01;;;;;;;0.60;0.60;;;20.60;51.90;;;;;;5070052;28;20380;-72
2022/08/13 01:27:27;;;;;;;0.40;0.30;;;20.30;52.20;;;;;;5069834;28;20922;-72
2022/08/13 01:29:53;;;;;;;0.40;0.20;;;20.20;54.10;;;;;;5069894;28;20731;-72
2022/08/13 01:32:20;;;;;;;0.40;0.20;;;20.10;54.00;;;;;;5069700;28;20387;-72
2022/08/13 01:34:48;;;;;;;0.40;0.30;;;20.00;54.20;;;;;;5069386;28;20407;-72
2022/08/13 01:37:15;;;;;;;0.40;0.20;;;19.90;55.30;;;;;;5069646;28;20386;-72
2022/08/13 01:39:41;;;;;;;0.50;0.30;;;19.70;56.00;;;;;;5069839;28;20380;-72
2022/08/13 01:42:09;;;;;;;0.40;0.20;;;19.70;56.30;;;;;;5069745;28;20761;-73
2022/08/13 01:44:35;;;;;;;0.50;0.30;;;19.60;56.40;;;;;;5069867;28;20380;-72
2022/08/13 01:52:33;;;;;;;0.40;0.30;;;19.40;56.80;;;;;;5069454;28;20382;-72
2022/08/13 01:55:01;;;;;;;0.40;0.30;;;19.30;57.40;;;;;;5069945;28;20387;-72
2022/08/13 01:57:27;;;;;;;1.10;0.70;;;19.20;58.20;;;;;;5070239;28;20390;-72
2022/08/13 01:59:53;;;;;;;0.40;0.20;;;19.20;58.20;;;;;;5068515;28;20427;-72
2022/08/13 02:02:23;;;;;;;0.40;0.30;;;19.10;58.30;;;;;;5069484;28;20399;-72
2022/08/13 02:04:49;;;;;;;0.40;0.30;;;19.20;59.00;;;;;;5069714;28;20383;-72
2022/08/13 02:07:15;;;;;;;0.40;0.20;;;19.20;58.60;;;;;;5069779;28;20742;-72
2022/08/13 02:09:42;;;;;;;0.40;0.30;;;19.10;59.50;;;;;;5072882;28;20448;-72
2022/08/13 02:12:12;;;;;;;0.40;0.22;;;19.00;59.40;;;;;;5070182;28;20997;-72
2022/08/13 02:14:38;;;;;;;0.50;0.40;;;19.00;59.90;;;;;;5072931;28;20482;-72
2022/08/13 02:17:24;;;;;;;0.40;0.20;;;19.10;59.60;;;;;;5071851;28;20395;-72
2022/08/13 02:19:59;;;;;;;0.40;0.30;;;19.10;59.40;;;;;;5073320;28;20425;-72
2022/08/13 02:22:25;;;;;;;0.40;0.20;;;19.00;59.70;;;;;;5072912;28;20372;-72
2022/08/13 02:24:53;;;;;;;0.70;0.60;;;19.00;60.40;;;;;;5071725;28;20765;-72
2022/08/13 02:27:21;;;;;;;0.40;0.30;;;19.10;60.70;;;;;;5071854;28;20395;-72
2022/08/13 02:29:49;;;;;;;0.40;0.30;;;18.90;61.00;;;;;;5073129;28;20384;-72
2022/08/13 02:32:16;;;;;;;0.80;0.70;;;19.00;61.10;;;;;;5072998;28;20391;-72
2022/08/13 02:34:49;;;;;;;0.60;0.60;;;19.10;62.40;;;;;;5072588;28;20454;-72
2022/08/13 02:37:15;;;;;;;0.40;0.30;;;19.10;62.40;;;;;;5072984;28;20385;-72
2022/08/13 02:39:42;;;;;;;0.40;0.30;;;19.10;63.00;;;;;;5072839;28;20376;-72
2022/08/13 02:42:09;;;;;;;0.40;0.30;;;19.00;63.40;;;;;;5071766;28;20881;-73
2022/08/13 02:44:35;;;;;;;0.40;0.30;;;18.90;64.70;;;;;;5072610;28;20390;-72
2022/08/13 02:47:04;;;;;;;0.40;0.30;;;18.90;65.90;;;;;;5072712;28;20461;-72
2022/08/13 02:49:31;;;;;;;0.40;0.30;;;18.80;65.90;;;;;;5072644;28;20387;-72
2022/08/13 02:51:58;;;;;;;0.40;0.30;;;18.70;66.60;;;;;;5072621;28;20858;-72
2022/08/13 02:54:25;;;;;;;0.40;0.30;;;18.80;67.90;;;;;;5072198;28;20400;-72
2022/08/13 02:56:51;;;;;;;0.40;0.30;;;18.60;69.50;;;;;;5072655;28;20726;-72
2022/08/13 02:59:16;;;;;;;0.40;0.30;;;18.60;69.60;;;;;;5072577;28;20805;-72
2022/08/13 03:01:45;;;;;;;0.60;0.60;;;18.60;68.90;;;;;;5072267;28;20420;-72
2022/08/13 03:04:10;;;;;;;0.40;0.20;;;18.50;69.50;;;;;;5072222;28;20390;-72
2022/08/13 03:06:36;;;;;;;0.40;0.30;;;18.60;70.60;;;;;;5072608;28;20384;-72
2022/08/13 03:09:04;;;;;;;0.40;0.30;;;18.60;69.30;;;;;;5072423;28;20432;-72
2022/08/13 03:11:31;;;;;;;0.40;0.30;;;18.60;70.10;;;;;;5072410;28;20795;-72
2022/08/13 03:14:01;;;;;;;0.40;0.20;;;18.60;71.20;;;;;;5071828;28;20432;-72
2022/08/13 03:16:28;;;;;;;0.50;0.40;;;18.40;70.60;;;;;;5070882;28;20822;-72
2022/08/13 03:18:57;;;;;;;0.40;0.30;;;18.20;70.80;;;;;;5070741;28;20388;-72
2022/08/13 03:21:32;;;;;;;0.40;0.30;;;18.30;72.90;;;;;;5059653;28;20382;-72
2022/08/13 03:23:59;;;;;;;0.50;0.40;;;18.30;74.10;;;;;;5051674;28;20854;-72
2022/08/13 03:26:25;;;;;;;0.40;0.30;;;18.30;74.40;;;;;;5051833;28;20417;-72
2022/08/13 03:28:51;;;;;;;0.40;0.30;;;18.30;74.70;;;;;;5051725;28;20425;-72
2022/08/13 03:31:21;;;;;;;0.40;0.25;;;18.40;74.90;;;;;;5052134;28;20382;-72
2022/08/13 03:33:47;;;;;;;0.40;0.30;;;18.30;76.00;;;;;;5070222;28;20999;-72
2022/08/13 03:36:13;;;;;;;0.40;0.20;;;18.20;76.90;;;;;;5070477;28;20419;-72
2022/08/13 03:38:39;;;;;;;0.40;0.20;;;18.10;78.40;;;;;;5071733;28;20423;-72
2022/08/13 03:41:11;;;;;;;0.40;0.30;;;18.10;80.90;;;;;;5071665;28;20396;-72
2022/08/13 03:43:38;;;;;;;0.40;0.30;;;18.00;80.50;;;;;;5070902;28;20795;-72
2022/08/13 03:46:04;;;;;;;0.40;0.30;;;18.00;80.60;;;;;;5071532;28;20395;-72
2022/08/13 03:48:30;;;;;;;0.40;0.30;;;17.90;80.70;;;;;;5071382;28;20380;-72
2022/08/13 03:51:00;;;;;;;0.40;0.20;;;17.80;81.60;;;;;;5071445;28;20379;-72
2022/08/13 03:53:25;;;;;;;0.50;0.40;;;17.90;86.00;;;;;;5070989;28;20917;-72
2022/08/13 03:55:51;;;;;;;0.40;0.20;;;17.80;82.90;;;;;;5071024;28;20423;-72
2022/08/13 03:58:17;;;;;;;0.40;0.20;;;17.80;84.40;;;;;;5071231;28;20383;-72
2022/08/13 04:00:48;;;;;;;0.50;0.40;;;17.70;83.60;;;;;;5071315;28;20775;-72
2022/08/13 04:03:19;;;;;;;0.40;0.20;;;17.70;85.60;;;;;;5070594;28;20399;-72
2022/08/13 04:05:45;;;;;;;0.40;0.40;;;17.60;86.00;;;;;;5071315;28;20460;-72
2022/08/13 04:08:11;;;;;;;0.40;0.30;;;17.60;89.60;;;;;;5070777;28;20380;-71
2022/08/13 04:10:37;;;;;;;0.40;0.30;;;17.50;87.60;;;;;;5070013;28;20885;-72
2022/08/13 04:13:04;;;;;;;0.50;0.30;;;17.60;86.90;;;;;;5070699;28;20403;-73
2022/08/13 04:15:30;;;;;;;0.40;0.20;;;17.60;87.20;;;;;;5071045;28;20383;-72
2022/08/13 04:17:56;;;;;;;0.40;0.20;;;17.30;88.30;;;;;;5071150;28;20464;-73
2022/08/13 04:20:22;;;;;;;0.50;0.30;;;17.30;90.10;;;;;;5070950;28;20438;-73
2022/08/13 04:22:47;;;;;;;0.40;0.20;;;17.40;89.90;;;;;;5070749;28;20892;-72
2022/08/13 04:25:13;;;;;;;0.40;0.20;;;17.40;90.70;;;;;;5070883;28;20742;-72
2022/08/13 04:27:39;;;;;;;0.40;0.20;;;17.40;90.30;;;;;;5070749;28;20492;-72
2022/08/13 04:30:05;;;;;;;0.40;0.30;;;17.40;90.40;;;;;;5070763;28;20383;-73
2022/08/13 04:32:43;;;;;;;0.40;0.20;;;17.30;91.40;;;;;;5070331;28;20467;-72
2022/08/13 04:35:10;;;;;;;0.40;0.30;;;17.30;90.30;;;;;;5070570;28;20852;-72
2022/08/13 04:37:36;;;;;;;0.40;0.23;;;17.20;91.00;;;;;;5070864;28;20476;-72
2022/08/13 04:40:03;;;;;;;0.40;0.30;;;17.30;91.10;;;;;;5069299;28;20415;-72
2022/08/13 04:42:43;;;;;;;0.40;0.20;;;17.30;91.90;;;;;;5070611;28;20753;-72
2022/08/13 04:45:09;;;;;;;0.50;0.40;;;17.40;91.10;;;;;;5070645;28;20387;-73
2022/08/13 04:47:35;;;;;;;0.50;0.40;;;17.30;91.80;;;;;;5070606;28;20869;-72
2022/08/13 04:50:00;;;;;;;0.40;0.20;;;17.40;91.40;;;;;;5070426;28;20433;-73
2022/08/13 04:52:26;;;;;;;0.40;0.30;;;17.40;91.80;;;;;;5070229;28;20772;-73
2022/08/13 04:54:51;;;;;;;0.40;0.30;;;17.60;91.10;;;;;;5070395;28;20392;-73
2022/08/13 04:57:17;;;;;;;0.40;0.30;;;17.50;91.90;;;;;;5069265;28;20962;-72
2022/08/13 04:59:42;;;;;;;0.40;0.20;;;17.50;92.70;;;;;;5070400;28;20462;-73
2022/08/13 05:02:08;;;;;;;0.40;0.30;;;17.40;93.20;;;;;;5070326;28;20396;-72
2022/08/13 05:04:33;;;;;;;0.40;0.30;;;17.40;92.60;;;;;;5070186;28;20415;-72
2022/08/13 05:06:59;;;;;;;0.40;0.23;;;17.40;94.30;;;;;;5070245;28;20888;-72
2022/08/13 05:09:24;;;;;;;0.40;0.20;;;17.60;93.30;;;;;;5070340;28;20383;-73
2022/08/13 05:11:50;;;;;;;0.47;0.40;;;17.60;93.30;;;;;;5069649;28;20799;-72
2022/08/13 05:14:15;;;;;;;0.40;0.30;;;17.70;93.70;;;;;;5068452;28;20403;-72
2022/08/13 05:16:41;;;;;;;0.40;0.30;;;17.80;93.30;;;;;;5069856;28;20379;-72
2022/08/13 05:19:07;;;;;;;0.40;0.30;;;17.80;93.70;;;;;;5070204;28;20380;-73
2022/08/13 05:21:33;;;;;;;0.40;0.30;;;17.80;93.10;;;;;;5070306;28;20386;-73
2022/08/13 05:23:58;;;;;;;0.40;0.30;;;17.80;93.00;;;;;;5070554;28;20384;-72
2022/08/13 05:26:28;;;;;;;0.40;0.20;;;18.00;92.90;;;;;;5071351;28;20384;-73
2022/08/13 05:28:56;;;;;;;0.50;0.40;;;18.00;93.70;;;;;;5071346;28;20380;-73
2022/08/13 05:31:22;;;;;;;0.60;0.60;;;18.10;94.40;;;;;;5070913;28;20861;-73
2022/08/13 05:33:48;;;;;;;0.40;0.20;;;18.10;93.50;;;;;;5069824;28;20777;-72
2022/08/13 05:36:13;;;;;;;0.40;0.30;;;18.10;93.80;;;;;;5070306;28;20383;-71
2022/08/13 05:38:39;;;;;;;0.50;0.40;;;18.20;94.40;;;;;;5069802;28;20832;-72
2022/08/13 05:41:07;;;;;;;0.50;0.40;;;18.30;93.50;;;;;;5069892;28;20444;-72
2022/08/13 05:43:36;;;;;;;0.50;0.40;;;18.40;92.80;;;;;;5070658;28;20449;-71
2022/08/13 05:46:09;;;;;;;0.43;0.30;;;18.40;92.60;;;;;;5073465;28;20383;-72
2022/08/13 05:48:43;;;;;;;0.50;0.50;;;18.40;93.40;;;;;;5072354;28;20391;-71
2022/08/13 05:51:13;;;;;;;0.40;0.30;;;18.50;94.90;;;;;;5073624;28;20416;-71
2022/08/13 05:53:39;;;;;;;0.40;0.30;;;18.50;93.90;;;;;;5073123;28;20415;-70
2022/08/13 05:56:05;;;;;;;0.40;0.30;;;18.60;94.90;;;;;;5073342;28;20779;-73
2022/08/13 05:58:31;;;;;;;0.40;0.20;;;18.70;93.30;;;;;;5073643;28;20884;-72
2022/08/13 06:03:42;;;;;;;0.50;0.50;;;19.00;93.00;;;;;;5073358;28;20449;-72
2022/08/13 06:06:10;;;;;;;0.40;0.20;;;19.20;90.70;;;;;;5073171;28;20434;-72
2022/08/13 06:08:39;;;;;;;0.40;0.30;;;19.30;90.30;;;;;;5073491;28;20383;-72
2022/08/13 06:11:11;;;;;;;0.40;0.30;;;19.50;89.30;;;;;;5073239;28;20386;-71
2022/08/13 06:13:41;;;;;;;0.50;0.40;;;19.70;89.90;;;;;;5072425;28;20429;-71
2022/08/13 06:16:08;;;;;;;0.40;0.30;;;19.80;88.90;;;;;;5073303;28;20380;-71
2022/08/13 06:18:36;;;;;;;0.70;0.70;;;19.90;87.20;;;;;;5073207;28;20386;-71
2022/08/13 06:21:04;;;;;;;0.40;0.30;;;20.30;82.80;;;;;;5072732;28;20400;-72
2022/08/13 06:23:34;;;;;;;0.50;0.40;;;20.30;86.60;;;;;;5071577;28;20416;-72
2022/08/13 06:26:01;;;;;;;0.45;0.30;;;20.40;81.90;;;;;;5072842;28;20757;-72
2022/08/13 06:28:29;;;;;;;0.40;0.30;;;20.50;82.50;;;;;;5072928;28;20383;-71
2022/08/13 06:30:58;;;;;;;0.40;0.30;;;20.60;79.20;;;;;;5072992;28;20790;-72
2022/08/13 06:33:25;;;;;;;0.50;0.30;;;20.60;79.40;;;;;;5072327;28;20473;-71
2022/08/13 06:35:57;;;;;;;0.40;0.30;;;20.70;80.00;;;;;;5072668;28;20876;-72
2022/08/13 06:38:28;;;;;;;0.40;0.30;;;20.70;80.10;;;;;;5072887;28;20380;-72
2022/08/13 06:40:55;;;;;;;0.40;0.30;;;20.70;79.20;;;;;;5071544;28;20425;-72
2022/08/13 06:43:21;;;;;;;0.40;0.20;;;21.00;77.30;;;;;;5071575;28;20384;-73
2022/08/13 06:45:47;;;;;;;0.40;0.20;;;20.90;79.30;;;;;;5072827;28;20380;-73
2022/08/13 06:48:14;;;;;;;0.40;0.30;;;20.90;79.20;;;;;;5072696;28;20384;-72
2022/08/13 06:50:40;;;;;;;0.40;0.30;;;21.00;77.50;;;;;;5072624;28;20403;-72
2022/08/13 06:53:07;;;;;;;0.40;0.20;;;21.00;79.40;;;;;;5070540;28;20498;-72
2022/08/13 06:55:36;;;;;;;0.40;0.30;;;21.00;78.50;;;;;;5065933;28;20376;-71
2022/08/13 06:58:04;;;;;;;0.40;0.30;;;21.10;80.00;;;;;;5055972;28;20464;-72
2022/08/13 07:00:31;;;;;;;0.40;0.30;;;21.10;76.70;;;;;;5052274;28;20436;-72
2022/08/13 07:02:58;;;;;;;0.40;0.20;;;21.30;74.90;;;;;;5051608;28;20402;-72
2022/08/13 07:05:35;;;;;;;0.40;0.30;;;21.40;76.00;;;;;;5051045;28;20392;-72
2022/08/13 07:08:04;;;;;;;0.40;0.30;;;21.50;75.30;;;;;;5052061;28;20390;-72
2022/08/13 07:10:31;;;;;;;0.40;0.30;;;21.70;72.90;;;;;;5054573;28;20399;-72
2022/08/13 07:12:58;;;;;;;0.40;0.30;;;21.70;73.30;;;;;;5060042;28;20988;-71
2022/08/13 07:15:23;;;;;;;0.50;0.40;;;21.80;71.70;;;;;;5063138;28;20741;-71
2022/08/13 07:17:50;;;;;;;0.40;0.30;;;21.90;70.80;;;;;;5071632;28;20458;-71
2022/08/13 07:20:16;;;;;;;0.40;0.20;;;21.90;70.20;;;;;;5069523;28;20397;-71
2022/08/13 07:22:42;;;;;;;0.40;0.30;;;21.80;71.50;;;;;;5071732;28;20839;-71
2022/08/13 07:25:10;;;;;;;0.40;0.30;;;22.00;69.90;;;;;;5072346;28;20376;-71
2022/08/13 07:27:40;;;;;;;0.40;0.30;;;22.00;68.00;;;;;;5066846;28;20923;-71
2022/08/13 07:30:07;;;;;;;0.40;0.30;;;22.10;69.50;;;;;;5072024;28;20386;-71
2022/08/13 07:32:37;;;;;;;0.40;0.22;;;22.10;69.70;;;;;;5063467;28;20400;-71
2022/08/13 07:35:04;;;;;;;0.40;0.30;;;22.00;70.00;;;;;;5073235;28;20412;-71
2022/08/13 07:37:30;;;;;;;0.40;0.20;;;21.90;69.10;;;;;;5071695;28;20830;-70
2022/08/13 07:39:59;;;;;;;0.40;0.30;;;21.80;70.00;;;;;;5064316;28;20483;-72
2022/08/13 07:42:26;;;;;;;0.40;0.20;;;21.90;69.30;;;;;;5064832;28;20410;-72
2022/08/13 07:44:53;;;;;;;0.40;0.28;;;22.00;70.90;;;;;;5064206;28;20413;-71
2022/08/13 07:47:20;;;;;;;0.40;0.30;;;22.10;69.50;;;;;;5071249;28;20380;-71
2022/08/13 07:49:46;;;;;;;0.43;0.40;;;22.30;69.10;;;;;;5066306;28;20501;-71
2022/08/13 07:52:13;;;;;;;0.40;0.30;;;22.50;68.60;;;;;;5069418;28;20404;-71
2022/08/13 07:54:43;;;;;;;0.40;0.30;;;22.30;68.20;;;;;;5070299;28;20773;-71
2022/08/13 07:57:10;;;;;;;0.40;0.20;;;22.30;68.20;;;;;;5066901;28;20774;-71
2022/08/13 07:59:36;;;;;;;0.40;0.20;;;22.30;67.70;;;;;;5069227;28;20410;-71
2022/08/13 08:02:05;;;;;;;0.40;0.30;;;22.30;68.10;;;;;;5070292;28;20388;-71
2022/08/13 08:04:34;;;;;;;0.40;0.30;;;22.30;68.00;;;;;;5062997;28;21038;-72
2022/08/13 08:07:01;;;;;;;0.40;0.30;;;22.30;68.10;;;;;;5062908;28;20403;-71
2022/08/13 08:09:31;;;;;;;0.40;0.30;;;22.40;67.50;;;;;;5064229;28;20449;-71
2022/08/13 08:14:44;;;;;;;0.40;0.30;;;22.70;65.30;;;;;;5066996;28;20453;-72
2022/08/13 08:17:11;;;;;;;0.40;0.30;;;22.80;65.50;;;;;;5069797;28;20392;-72
2022/08/13 08:19:41;;;;;;;0.40;0.20;;;22.90;64.70;;;;;;5071335;28;20375;-73
2022/08/13 08:22:08;;;;;;;0.40;0.30;;;23.10;63.90;;;;;;5067471;28;20426;-73
2022/08/13 08:24:35;;;;;;;0.40;0.20;;;23.10;63.10;;;;;;5070561;28;20483;-73
2022/08/13 08:27:03;;;;;;;0.40;0.30;;;23.10;63.60;;;;;;5060742;28;20403;-72
2022/08/13 08:29:32;;;;;;;0.40;0.30;;;23.20;63.50;;;;;;5065100;28;20427;-72
2022/08/13 08:31:59;;;;;;;0.40;0.30;;;23.40;62.60;;;;;;5069665;28;20544;-72
2022/08/13 08:34:26;;;;;;;0.70;0.50;;;23.50;62.30;;;;;;5060985;28;20418;-72
2022/08/13 08:36:55;;;;;;;0.40;0.30;;;23.60;61.70;;;;;;5067841;28;20758;-71
2022/08/13 08:44:56;;;;;;;0.40;0.20;;;23.70;60.00;;;;;;5062062;28;20459;-72
2022/08/13 08:47:29;;;;;;;0.40;0.30;;;23.80;59.50;;;;;;5053749;28;21262;-71
2022/08/13 08:49:58;;;;;;;0.40;0.20;;;23.70;58.90;;;;;;5054222;28;20416;-72
2022/08/13 08:55:11;;;;;;;0.40;0.30;;;23.90;58.50;;;;;;5056801;28;20919;-73
2022/08/13 08:57:39;;;;;;;0.40;0.20;;;23.80;57.80;;;;;;5066840;28;20423;-72
2022/08/13 09:00:05;;;;;;;0.40;0.30;;;23.80;57.90;;;;;;5068035;28;20402;-73
2022/08/13 09:02:33;;;;;;;0.40;0.30;;;24.00;57.60;;;;;;5068343;28;20402;-73
2022/08/13 09:05:01;;;;;;;0.40;0.20;;;24.10;57.50;;;;;;5058778;28;20402;-72
2022/08/13 09:07:30;;;;;;;0.40;0.30;;;24.20;56.50;;;;;;5055873;28;20404;-72
2022/08/13 09:09:58;;;;;;;0.40;0.20;;;24.40;56.10;;;;;;5058838;28;20565;-73
2022/08/13 09:12:28;;;;;;;0.40;0.30;;;24.50;55.50;;;;;;5056847;28;20397;-72
2022/08/13 09:14:56;;;;;;;0.40;0.30;;;24.50;56.20;;;;;;5061431;28;20747;-72
2022/08/13 09:17:22;;;;;;;0.40;0.30;;;24.60;57.70;;;;;;5068641;28;20822;-71
2022/08/13 09:19:48;;;;;;;0.40;0.30;;;24.60;57.70;;;;;;5062129;28;20415;-73
2022/08/13 09:22:19;;;;;;;0.40;0.20;;;24.50;58.10;;;;;;5069801;28;20415;-73
2022/08/13 09:24:46;;;;;;;0.40;0.20;;;24.50;59.10;;;;;;5070026;28;20486;-72
2022/08/13 09:27:15;;;;;;;0.40;0.30;;;24.60;59.30;;;;;;5066655;28;20469;-72
2022/08/13 09:29:42;;;;;;;0.40;0.30;;;24.40;59.30;;;;;;5068663;28;20403;-73
2022/08/13 09:32:09;;;;;;;0.40;0.20;;;24.40;60.00;;;;;;5068269;28;20483;-74
2022/08/13 09:34:37;;;;;;;0.40;0.30;;;24.60;59.50;;;;;;5067180;28;20404;-72
2022/08/13 09:37:03;;;;;;;0.40;0.20;;;24.60;59.20;;;;;;5068997;28;20395;-72
2022/08/13 09:39:35;;;;;;;0.40;0.30;;;24.70;58.20;;;;;;5069611;28;20485;-72
2022/08/13 09:42:07;;;;;;;0.40;0.30;;;24.80;58.00;;;;;;5065692;28;20458;-70
2022/08/13 09:44:41;;;;;;;0.40;0.20;;;25.10;57.40;;;;;;5060318;28;20389;-72
2022/08/13 09:47:10;;;;;;;0.40;0.20;;;25.00;56.60;;;;;;5049429;28;20767;-72
2022/08/13 09:49:36;;;;;;;0.40;0.25;;;25.00;56.20;;;;;;5061559;28;20405;-73
2022/08/13 09:52:02;;;;;;;0.40;0.20;;;25.10;56.30;;;;;;5061806;28;20971;-73
2022/08/13 09:54:27;;;;;;;0.40;0.20;;;25.10;56.10;;;;;;5069772;28;20411;-73
2022/08/13 09:56:57;;;;;;;0.40;0.20;;;25.10;55.60;;;;;;5069842;28;20395;-73
2022/08/13 09:59:23;;;;;;;0.40;0.20;;;25.40;51.90;;;;;;5049590;28;20519;-72
2022/08/13 10:01:50;;;;;;;0.40;0.22;;;26.10;50.40;;;;;;5049884;28;20472;-74
2022/08/13 10:04:18;;;;;;;0.40;0.20;;;26.40;51.60;;;;;;5049475;28;20417;-73
2022/08/13 10:06:45;;;;;;;0.40;0.20;;;26.50;51.60;;;;;;5051678;28;20412;-74
2022/08/13 10:09:14;;;;;;;0.40;0.30;;;26.50;49.90;;;;;;5063292;28;20394;-72
2022/08/13 10:11:40;;;;;;;0.50;0.30;;;26.70;47.20;;;;;;5057690;28;20411;-74
2022/08/13 10:14:06;;;;;;;0.40;0.30;;;26.70;44.40;;;;;;5067070;28;20777;-74
2022/08/13 10:16:32;;;;;;;0.50;0.50;;;26.80;41.80;;;;;;5069182;28;20434;-75
2022/08/13 10:18:57;;;;;;;0.40;0.30;;;27.20;40.70;;;;;;5069939;28;20379;-74
2022/08/13 10:21:24;;;;;;;0.40;0.30;;;27.20;40.60;;;;;;5067870;28;20391;-74
2022/08/13 10:23:50;;;;;;;0.40;0.30;;;27.20;41.10;;;;;;5069196;28;20415;-74
2022/08/13 10:26:19;;;;;;;0.40;0.20;;;27.40;40.00;;;;;;5068367;28;20408;-74
2022/08/13 10:28:48;;;;;;;0.40;0.30;;;27.60;40.00;;;;;;5069362;28;20411;-74
2022/08/13 10:31:14;;;;;;;0.40;0.30;;;27.50;38.70;;;;;;5073034;28;20405;-75
2022/08/13 10:33:40;;;;;;;0.40;0.20;;;27.60;39.50;;;;;;5052676;28;20496;-74
2022/08/13 10:36:07;;;;;;;0.40;0.30;;;27.80;38.80;;;;;;5052427;28;20392;-74
2022/08/13 10:38:33;;;;;;;0.40;0.20;;;27.80;37.80;;;;;;5053311;28;20481;-75
2022/08/13 10:41:10;;;;;;;0.50;0.50;;;27.70;38.80;;;;;;5052788;28;20473;-74
2022/08/13 10:43:39;;;;;;;0.40;0.30;;;28.00;38.00;;;;;;5058986;28;20425;-74
2022/08/13 10:46:11;;;;;;;0.40;0.30;;;27.90;36.40;;;;;;5054652;28;20445;-73
2022/08/13 10:48:37;;;;;;;0.40;0.30;;;27.90;36.90;;;;;;5071416;28;20398;-74
2022/08/13 10:51:03;;;;;;;0.40;0.30;;;28.20;36.80;;;;;;5072369;28;20383;-76
2022/08/13 10:56:13;;;;;;;0.40;0.20;;;28.60;35.80;;;;;;5071773;28;20437;-76
2022/08/13 10:58:39;;;;;;;0.40;0.30;;;28.70;36.60;;;;;;5071647;28;20388;-72
2022/08/13 11:01:05;;;;;;;0.40;0.30;;;28.60;35.40;;;;;;5072207;28;20376;-71
2022/08/13 11:03:33;;;;;;;0.50;0.50;;;28.80;36.70;;;;;;5072027;28;20522;-72
2022/08/13 11:06:00;;;;;;;0.40;0.20;;;28.60;35.00;;;;;;5071041;28;20399;-71
2022/08/13 11:08:36;;;;;;;0.40;0.30;;;28.80;35.60;;;;;;5072337;28;20392;-71
2022/08/13 11:11:10;;;;;;;0.40;0.20;;;29.00;35.30;;;;;;5072289;28;20391;-72
2022/08/13 11:13:37;;;;;;;0.40;0.30;;;29.20;35.10;;;;;;5070812;28;20403;-72
2022/08/13 11:16:54;;;;;;;0.40;0.20;;;28.90;32.90;;;;;;5072450;28;20394;-71
2022/08/13 11:18:49;;;;;;;0.40;0.30;;;28.80;33.40;;;;;;5071820;28;20399;-73
2022/08/13 11:21:16;;;;;;;0.40;0.20;;;29.10;34.60;;;;;;5071856;28;20391;-74
2022/08/13 11:23:41;;;;;;;0.40;0.30;;;29.50;33.60;;;;;;5071686;28;20391;-74
2022/08/13 11:26:07;;;;;;;0.40;0.30;;;30.00;33.90;;;;;;5071642;28;20380;-73
2022/08/13 11:28:32;;;;;;;0.40;0.20;;;30.20;33.50;;;;;;5071185;28;20388;-72
2022/08/13 11:30:58;;;;;;;0.40;0.20;;;30.20;32.10;;;;;;5071702;28;20379;-74
2022/08/13 11:33:25;;;;;;;0.40;0.30;;;30.50;33.20;;;;;;5069933;28;20461;-73
2022/08/13 11:35:54;;;;;;;0.40;0.30;;;30.30;31.10;;;;;;5071538;28;20376;-73
2022/08/13 11:38:21;;;;;;;0.40;0.20;;;30.40;31.60;;;;;;5068963;28;20367;-73
2022/08/13 11:40:55;;;;;;;0.40;0.30;;;30.20;31.60;;;;;;5070676;28;20468;-74
2022/08/13 11:43:26;;;;;;;0.40;0.20;;;29.80;31.20;;;;;;5068594;28;20891;-73
2022/08/13 11:45:51;;;;;;;0.40;0.30;;;29.80;32.30;;;;;;5070175;28;20961;-74
2022/08/13 11:48:20;;;;;;;0.40;0.20;;;31.10;32.60;;;;;;5070725;28;20394;-74
2022/08/13 11:50:50;;;;;;;0.40;0.20;;;31.10;30.40;;;;;;5071718;28;20510;-74
2022/08/13 11:53:17;;;;;;;0.40;0.20;;;31.20;29.50;;;;;;5071406;28;20465;-74
2022/08/13 11:55:43;;;;;;;0.40;0.20;;;31.90;28.70;;;;;;5071492;28;20440;-74
2022/08/13 11:58:09;;;;;;;0.40;0.20;;;31.80;30.90;;;;;;5071238;28;20406;-74
2022/08/13 12:00:36;;;;;;;0.40;0.20;;;32.50;29.70;;;;;;5071096;28;20376;-74
2022/08/13 12:03:03;;;;;;;0.40;0.20;;;32.50;29.00;;;;;;5071031;28;20921;-74
2022/08/13 12:05:29;;;;;;;0.60;0.60;;;32.40;28.60;;;;;;5069938;28;20514;-73
2022/08/13 12:07:55;;;;;;;0.40;0.20;;;32.80;29.20;;;;;;5069682;28;20415;-73
2022/08/13 12:10:21;;;;;;;0.40;0.20;;;33.40;27.90;;;;;;5076968;22;20843;-75
2022/08/13 12:12:48;;;;;;;0.40;0.20;;;33.60;26.90;;;;;;5051039;28;20464;-74
2022/08/13 12:15:14;;;;;;;0.40;0.20;;;33.30;26.60;;;;;;5051298;28;20556;-75
2022/08/13 12:17:42;;;;;;;0.40;0.20;;;33.10;26.60;;;;;;5052156;28;20877;-74
2022/08/13 12:20:10;;;;;;;0.40;0.20;;;33.40;26.10;;;;;;5051688;28;20377;-75
2022/08/13 12:22:35;;;;;;;0.40;0.20;;;33.80;25.50;;;;;;5051120;28;20464;-74
2022/08/13 12:25:01;;;;;;;0.40;0.20;;;34.00;26.50;;;;;;5051167;28;20488;-75
2022/08/13 12:27:26;;;;;;;0.40;0.20;;;34.30;26.30;;;;;;5051134;28;20394;-75
2022/08/13 12:29:52;;;;;;;0.40;0.20;;;34.20;26.50;;;;;;5031766;28;20447;-75
2022/08/13 12:32:18;;;;;;;0.40;0.20;;;34.20;25.50;;;;;;5050801;28;20461;-75
2022/08/13 12:34:44;;;;;;;0.40;0.20;;;33.60;26.20;;;;;;5050499;28;20895;-75
2022/08/13 12:37:09;;;;;;;0.40;0.20;;;33.70;26.70;;;;;;5050915;28;20400;-75
2022/08/13 12:39:35;;;;;;;0.40;0.20;;;33.70;26.20;;;;;;5051012;28;20373;-74
2022/08/13 12:42:01;;;;;;;0.40;0.20;;;34.20;25.80;;;;;;5050832;28;20392;-74
2022/08/13 12:44:26;;;;;;;0.70;0.60;;;33.20;24.40;;;;;;5050653;28;20757;-75
2022/08/13 12:46:52;;;;;;;0.40;0.20;;;33.80;25.60;;;;;;5050749;28;20385;-74
2022/08/13 12:49:17;;;;;;;0.40;0.20;;;33.80;23.50;;;;;;5050633;28;20381;-75
2022/08/13 12:51:43;;;;;;;0.40;0.20;;;34.10;24.50;;;;;;5050596;28;20407;-75
2022/08/13 12:54:09;;;;;;;0.40;0.20;;;33.60;23.40;;;;;;5050268;28;20825;-74
2022/08/13 12:56:35;;;;;;;0.40;0.20;;;33.80;23.60;;;;;;5050630;28;20385;-74
2022/08/13 12:59:01;;;;;;;0.40;0.20;;;33.60;23.80;;;;;;5050494;28;20412;-75
2022/08/13 13:01:27;;;;;;;0.40;0.20;;;34.20;24.60;;;;;;5050090;28;20385;-75
2022/08/13 13:03:52;;;;;;;0.40;0.30;;;34.00;24.20;;;;;;5049771;28;20385;-75
2022/08/13 13:06:18;;;;;;;0.40;0.20;;;34.00;23.50;;;;;;5032622;28;20404;-75
2022/08/13 13:08:44;;;;;;;0.40;0.20;;;34.20;24.20;;;;;;5049938;28;20481;-75
2022/08/13 13:11:10;;;;;;;0.40;0.20;;;33.90;23.40;;;;;;5049119;28;20404;-75
2022/08/13 13:13:36;;;;;;;0.40;0.20;;;33.80;23.10;;;;;;5050169;28;20412;-76
2022/08/13 13:16:07;;;;;;;0.40;0.20;;;33.50;22.30;;;;;;5037929;28;20527;-75